Terminal Aerodrome Forecast
Issued by NWS Bismarck, ND

Home | Current Version | Previous Version | Text Only | Print | Product List | Glossary On
Versions: 1 2 3 4 5 6 7 8 9 10 11 12 13 14 15 16 17 18
000
FTUS43 KBIS 252330
TAFISN
TAF
KISN 252330Z 2600/2624 34009KT P6SM VCTS SCT018 OVC050CB
     FM260300 32006KT P6SM VCSH OVC050
     FM260900 28004KT P6SM BKN100
     FM261600 29006KT P6SM BKN040
     FM261800 30007KT P6SM -SHRA VCTS BKN050CB=

USA.gov is the U.S. government's official web portal to all federal, state and local government web resources and services.